Time;durP1;ratioP1;P1;durP2;ratioP2;P2;SDS_P1;SDS_P2;PMS_P1;PMS_P2;Temp;Humidity;BMP_temperature;BMP_pressure;BME280_temperature;BME280_humidity;BME280_pressure;Samples;Min_cycle;Max_cycle;Signal;HPM_P1;HPM_P2
2021/09/01 00:01:16;;;;;;;;;;;;;;;24.57;62.16;100785.00;5014282;28;1396;-47
2021/09/01 00:03:43;;;;;;;;;;;;;;;24.53;62.19;100770.16;5014274;28;1099;-47
2021/09/01 00:06:09;;;;;;;;;;;;;;;24.57;62.25;100777.78;5014316;28;1096;-47
2021/09/01 00:08:36;;;;;;;;;;;;;;;24.57;62.32;100777.78;5014480;28;1001;-47
2021/09/01 00:11:03;;;;;;;;;;;;;;;24.58;62.86;100790.25;5014232;28;1155;-47
2021/09/01 00:13:31;;;;;;;;;;;;;;;24.55;62.42;100774.41;5014146;28;1278;-47
2021/09/01 00:15:57;;;;;;;;;;;;;;;24.54;62.27;100767.28;5014130;28;1153;-47
2021/09/01 00:18:24;;;;;;;;;;;;;;;24.53;62.57;100776.44;5014340;28;1906;-47
2021/09/01 00:20:50;;;;;;;;;;;;;;;24.55;62.47;100779.81;5014844;28;1016;-47
2021/09/01 00:23:16;;;;;;;;;;;;;;;24.54;63.01;100780.81;5013934;28;1048;-47
2021/09/01 00:25:43;;;;;;;;;;;;;;;24.51;62.58;100772.19;5014327;28;1956;-47
2021/09/01 00:28:10;;;;;;;;;;;;;;;24.53;63.04;100789.94;5014285;28;1083;-47
2021/09/01 00:30:37;;;;;;;;;;;;;;;24.53;63.10;100794.50;5014237;28;1008;-47
2021/09/01 00:33:04;;;;;;;;;;;;;;;24.56;62.99;100795.00;5013842;28;948;-47
2021/09/01 00:35:31;;;;;;;;;;;;;;;24.55;63.04;100785.22;5014160;28;1059;-47
2021/09/01 00:37:57;;;;;;;;;;;;;;;24.48;62.38;100776.06;5014081;28;1981;-47
2021/09/01 00:40:23;;;;;;;;;;;;;;;24.54;62.23;100785.38;5013815;28;1096;-47
2021/09/01 00:42:50;;;;;;;;;;;;;;;24.52;62.16;100785.53;5013693;28;1437;-47
2021/09/01 00:45:16;;;;;;;;;;;;;;;24.52;62.05;100788.25;5014064;28;1079;-47
2021/09/01 00:47:44;;;;;;;;;;;;;;;24.55;62.63;100789.75;5013710;28;1175;-47
2021/09/01 00:50:11;;;;;;;;;;;;;;;24.52;62.51;100779.31;5013978;28;996;-47
2021/09/01 00:52:39;;;;;;;;;;;;;;;24.53;62.06;100792.66;5013984;28;2054;-47
2021/09/01 00:55:07;;;;;;;;;;;;;;;24.53;62.83;100802.59;5013894;28;956;-47
2021/09/01 00:57:33;;;;;;;;;;;;;;;24.52;63.00;100788.25;5013860;28;1906;-47
2021/09/01 01:00:00;;;;;;;;;;;;;;;24.54;62.91;100799.72;5013873;28;1047;-47
2021/09/01 01:02:27;;;;;;;;;;;;;;;24.50;62.80;100792.97;5013564;28;1381;-47
2021/09/01 01:04:55;;;;;;;;;;;;;;;24.51;62.27;100788.41;5013558;28;1097;-47
2021/09/01 01:07:21;;;;;;;;;;;;;;;24.53;63.02;100797.19;5013729;28;1082;-47
2021/09/01 01:09:48;;;;;;;;;;;;;;;24.52;62.50;100790.13;5013815;28;1071;-47
2021/09/01 01:12:16;;;;;;;;;;;;;;;24.54;62.91;100793.50;5013509;28;1099;-47
2021/09/01 01:14:44;;;;;;;;;;;;;;;24.52;62.60;100793.66;5013464;28;1077;-47
2021/09/01 01:17:11;;;;;;;;;;;;;;;24.53;62.95;100792.66;5013667;28;1906;-46
2021/09/01 01:19:39;;;;;;;;;;;;;;;24.50;62.67;100781.31;5013621;28;1082;-46
2021/09/01 01:22:07;;;;;;;;;;;;;;;24.51;62.53;100780.31;5013681;28;1007;-46
2021/09/01 01:24:48;;;;;;;;;;;;;;;24.51;62.94;100789.28;5013353;28;1073;-47
2021/09/01 01:27:23;;;;;;;;;;;;;;;24.50;62.01;100776.75;5013297;28;1117;-47
2021/09/01 01:29:50;;;;;;;;;;;;;;;24.52;62.18;100792.81;5013678;28;1901;-47
2021/09/01 01:32:16;;;;;;;;;;;;;;;24.50;62.26;100786.72;5013245;28;1076;-47
2021/09/01 01:34:43;;;;;;;;;;;;;;;24.47;62.55;100774.38;5014070;28;1082;-46
2021/09/01 01:37:10;;;;;;;;;;;;;;;24.47;62.98;100782.50;5017403;28;1941;-47
2021/09/01 01:39:36;;;;;;;;;;;;;;;24.47;62.34;100782.50;5017329;28;2076;-47
2021/09/01 01:42:03;;;;;;;;;;;;;;;24.50;62.08;100790.28;5017283;28;1067;-47
2021/09/01 01:44:31;;;;;;;;;;;;;;;24.47;62.75;100787.03;5017139;28;996;-47
2021/09/01 01:46:57;;;;;;;;;;;;;;;24.51;62.29;100783.00;5017218;28;1068;-46
2021/09/01 01:49:23;;;;;;;;;;;;;;;24.51;62.45;100796.53;5017159;28;1077;-48
2021/09/01 01:51:50;;;;;;;;;;;;;;;24.48;62.10;100783.34;5016828;28;1167;-47
2021/09/01 01:54:17;;;;;;;;;;;;;;;24.49;62.87;100785.88;5016768;28;1088;-47
2021/09/01 01:56:43;;;;;;;;;;;;;;;24.45;62.15;100773.69;5016608;28;1097;-47
2021/09/01 01:59:10;;;;;;;;;;;;;;;24.47;62.04;100787.91;5016887;28;1906;-47
2021/09/01 02:01:38;;;;;;;;;;;;;;;24.47;62.29;100787.91;5123197;22;3576;-48
2021/09/01 02:04:04;;;;;;;;;;;;;;;24.48;62.94;100788.75;5036706;28;1041;-47
2021/09/01 02:06:31;;;;;;;;;;;;;;;24.46;62.15;100783.50;5036281;28;1173;-47
2021/09/01 02:08:57;;;;;;;;;;;;;;;24.44;62.45;100784.69;5036219;28;1507;-47
2021/09/01 02:11:24;;;;;;;;;;;;;;;24.48;62.87;100791.44;5036599;28;1065;-47
2021/09/01 02:13:50;;;;;;;;;;;;;;;24.47;62.20;100790.59;5036457;28;1191;-48
2021/09/01 02:16:16;;;;;;;;;;;;;;;24.49;62.50;100793.13;5036467;28;1077;-48
2021/09/01 02:18:44;;;;;;;;;;;;;;;24.49;62.86;100796.69;5036434;28;1906;-47
2021/09/01 02:21:11;;;;;;;;;;;;;;;24.47;62.41;100776.22;5036299;28;1070;-47
2021/09/01 02:23:37;;;;;;;;;;;;;;;24.49;62.34;100793.97;5036545;28;2051;-47
2021/09/01 02:26:04;;;;;;;;;;;;;;;24.46;62.05;100788.91;5035996;28;1134;-47
2021/09/01 02:28:30;;;;;;;;;;;;;;;24.49;62.01;100788.56;5036182;28;1011;-47
2021/09/01 02:30:57;;;;;;;;;;;;;;;24.48;62.93;100794.97;5036192;28;1004;-47
2021/09/01 02:33:23;;;;;;;;;;;;;;;24.48;62.42;100777.94;5035887;28;1166;-47
2021/09/01 02:35:51;;;;;;;;;;;;;;;24.45;62.57;100795.31;5036059;28;1042;-47
2021/09/01 02:38:17;;;;;;;;;;;;;;;24.47;62.55;100797.84;5035659;28;1910;-47
2021/09/01 02:40:44;;;;;;;;;;;;;;;24.45;62.23;100776.38;5036017;28;1030;-47
2021/09/01 02:43:10;;;;;;;;;;;;;;;24.46;62.97;100778.09;5035991;28;1008;-47
2021/09/01 02:45:37;;;;;;;;;;;;;;;24.46;62.62;100783.50;5035446;28;991;-47
2021/09/01 02:48:04;;;;;;;;;;;;;;;24.42;62.22;100768.63;5035900;28;1097;-47
2021/09/01 02:50:30;;;;;;;;;;;;;;;24.45;62.03;100779.09;5035452;28;1174;-47
2021/09/01 02:52:58;;;;;;;;;;;;;;;24.45;62.36;100787.19;5035278;28;1078;-47
2021/09/01 02:55:24;;;;;;;;;;;;;;;24.45;62.71;100787.19;5035557;28;2034;-47
2021/09/01 02:57:51;;;;;;;;;;;;;;;24.41;62.27;100788.56;5035332;28;1982;-47
2021/09/01 03:00:17;;;;;;;;;;;;;;;24.48;62.34;100804.97;5035360;28;1143;-47
2021/09/01 03:02:44;;;;;;;;;;;;;;;24.47;62.90;100801.41;5035150;28;1280;-47
2021/09/01 03:05:11;;;;;;;;;;;;;;;24.41;62.37;100792.13;5035221;28;1111;-48
2021/09/01 03:07:37;;;;;;;;;;;;;;;24.44;62.09;100793.63;5035753;28;1918;-47
2021/09/01 03:10:05;;;;;;;;;;;;;;;24.46;62.81;100805.13;5035145;28;1075;-47
2021/09/01 03:12:32;;;;;;;;;;;;;;;24.41;62.34;100799.38;5035421;28;1081;-48
2021/09/01 03:14:58;;;;;;;;;;;;;;;24.43;62.25;100786.53;5035372;28;1089;-48
2021/09/01 03:17:25;;;;;;;;;;;;;;;24.47;62.71;100814.94;5035086;28;1185;-47
2021/09/01 03:19:51;;;;;;;;;;;;;;;24.48;62.95;100805.78;5034905;28;1902;-47
2021/09/01 03:22:18;;;;;;;;;;;;;;;24.41;62.34;100793.97;5034917;28;955;-47
2021/09/01 03:24:44;;;;;;;;;;;;;;;24.46;62.29;100813.22;5035222;28;1047;-47
2021/09/01 03:27:12;;;;;;;;;;;;;;;24.42;61.97;100807.31;5034727;28;1075;-47
2021/09/01 03:29:38;;;;;;;;;;;;;;;24.45;62.28;100806.13;5035052;28;1077;-47
2021/09/01 03:32:05;;;;;;;;;;;;;;;24.45;62.72;100816.09;5035026;28;1175;-47
2021/09/01 03:34:31;;;;;;;;;;;;;;;24.41;62.33;100813.75;5034997;28;1087;-47
2021/09/01 03:36:58;;;;;;;;;;;;;;;24.42;62.53;100812.72;5034936;28;1051;-47
2021/09/01 03:39:24;;;;;;;;;;;;;;;24.40;61.87;100805.81;5034851;28;1906;-47
2021/09/01 03:41:51;;;;;;;;;;;;;;;24.41;62.89;100810.19;5034452;28;1103;-47
2021/09/01 03:44:19;;;;;;;;;;;;;;;24.41;62.29;100816.44;5034515;28;1080;-47
2021/09/01 03:46:45;;;;;;;;;;;;;;;24.43;62.84;100821.66;5034499;28;1111;-47
2021/09/01 03:49:16;;;;;;;;;;;;;;;24.44;62.93;100828.78;5034698;28;1078;-47
2021/09/01 03:51:43;;;;;;;;;;;;;;;24.42;62.87;100834.34;5034384;28;1139;-47
2021/09/01 03:54:09;;;;;;;;;;;;;;;24.40;62.07;100813.91;5034791;28;1011;-47
2021/09/01 03:56:36;;;;;;;;;;;;;;;24.39;62.34;100817.63;5034663;28;1073;-47
2021/09/01 03:59:03;;;;;;;;;;;;;;;24.38;62.33;100818.66;5033749;28;1906;-47
2021/09/01 04:01:32;;;;;;;;;;;;;;;24.41;62.93;100829.09;5034160;28;1434;-48
2021/09/01 04:03:58;;;;;;;;;;;;;;;24.39;62.32;100818.50;5034394;28;1070;-47
2021/09/01 04:06:25;;;;;;;;;;;;;;;24.40;62.66;100830.97;5034058;28;1110;-48
2021/09/01 04:08:51;;;;;;;;;;;;;;;24.41;62.91;100832.66;5034344;28;1086;-47
2021/09/01 04:11:18;;;;;;;;;;;;;;;24.40;62.78;100828.25;5034328;28;1092;-47
2021/09/01 04:13:44;;;;;;;;;;;;;;;24.40;62.21;100840.94;5033987;28;1181;-47
2021/09/01 04:16:11;;;;;;;;;;;;;;;24.41;62.69;100831.81;5033952;28;1083;-47
2021/09/01 04:18:38;;;;;;;;;;;;;;;24.41;62.12;100842.63;5034017;28;1971;-47
2021/09/01 04:21:05;;;;;;;;;;;;;;;24.41;62.80;100832.66;5034171;28;1075;-47
2021/09/01 04:23:31;;;;;;;;;;;;;;;24.45;62.88;100845.84;5034110;28;1073;-47
2021/09/01 04:25:58;;;;;;;;;;;;;;;24.44;62.84;100853.09;5033788;28;1139;-47
2021/09/01 04:28:24;;;;;;;;;;;;;;;24.38;62.21;100827.59;5033774;28;1094;-47
2021/09/01 04:30:51;;;;;;;;;;;;;;;24.40;62.80;100843.66;5033959;28;1074;-47
2021/09/01 04:33:17;;;;;;;;;;;;;;;24.41;62.02;100834.50;5033988;28;1093;-47
2021/09/01 04:35:45;;;;;;;;;;;;;;;24.40;61.94;100835.53;5033658;28;1107;-47
2021/09/01 04:38:12;;;;;;;;;;;;;;;24.39;61.90;100831.13;5033812;28;1980;-47
2021/09/01 04:40:38;;;;;;;;;;;;;;;24.45;62.84;100843.97;5033866;28;996;-47
2021/09/01 04:43:05;;;;;;;;;;;;;;;24.41;62.87;100838.06;5034155;28;2035;-47
2021/09/01 04:45:31;;;;;;;;;;;;;;;24.44;62.32;100842.28;5033486;28;1079;-47
2021/09/01 04:47:58;;;;;;;;;;;;;;;24.45;62.78;100843.97;5033486;28;1095;-47
2021/09/01 04:50:24;;;;;;;;;;;;;;;24.46;61.94;100842.97;5033463;28;1170;-47
2021/09/01 04:52:52;;;;;;;;;;;;;;;24.40;62.26;100833.66;5033669;28;1000;-47
2021/09/01 04:55:19;;;;;;;;;;;;;;;24.47;62.72;100841.09;5033384;28;1092;-47
2021/09/01 04:57:45;;;;;;;;;;;;;;;24.46;61.90;100834.84;5033691;28;1004;-47
2021/09/01 05:00:12;;;;;;;;;;;;;;;24.49;62.23;100836.38;5033292;28;1910;-47
2021/09/01 05:02:39;;;;;;;;;;;;;;;24.48;62.66;100837.41;5033276;28;1450;-47
2021/09/01 05:05:06;;;;;;;;;;;;;;;24.48;61.78;100832.81;5033330;28;1110;-47
2021/09/01 05:07:33;;;;;;;;;;;;;;;24.50;62.53;100830.81;5033263;28;1115;-47
2021/09/01 05:10:00;;;;;;;;;;;;;;;24.52;62.19;100823.41;5036307;28;1000;-47
2021/09/01 05:12:27;;;;;;;;;;;;;;;24.50;61.62;100827.25;5037659;28;1073;-47
2021/09/01 05:14:54;;;;;;;;;;;;;;;24.55;62.60;100827.59;5037944;28;1926;-47
2021/09/01 05:17:20;;;;;;;;;;;;;;;24.54;62.04;100825.94;5037207;28;1095;-47
2021/09/01 05:19:47;;;;;;;;;;;;;;;24.56;61.79;100830.13;5037440;28;1902;-47
2021/09/01 05:22:16;;;;;;;;;;;;;;;24.57;62.45;100825.56;5037187;28;1103;-48
2021/09/01 05:24:46;;;;;;;;;;;;;;;24.57;62.30;100833.69;5037441;28;1032;-47
2021/09/01 05:27:17;;;;;;;;;;;;;;;24.58;61.71;100836.22;5036999;28;1079;-47
2021/09/01 05:29:44;;;;;;;;;;;;;;;24.59;61.68;100834.34;5037373;28;1118;-47
2021/09/01 05:32:13;;;;;;;;;;;;;;;24.59;62.59;100818.13;5037005;28;1083;-47
2021/09/01 05:34:40;;;;;;;;;;;;;;;24.61;61.72;100830.50;5037268;28;1088;-47
2021/09/01 05:37:09;;;;;;;;;;;;;;;24.60;61.85;100825.25;5036923;28;1067;-47
2021/09/01 05:39:35;;;;;;;;;;;;;;;24.67;62.12;100830.81;5037087;28;1972;-47
2021/09/01 05:42:02;;;;;;;;;;;;;;;24.71;61.65;100848.38;5037018;28;1117;-47
2021/09/01 05:44:30;;;;;;;;;;;;;;;24.71;61.75;100840.25;5036767;28;1071;-47
2021/09/01 05:46:59;;;;;;;;;;;;;;;24.72;61.75;100828.44;5036763;28;1173;-47
2021/09/01 05:49:26;;;;;;;;;;;;;;;24.72;61.04;100823.03;5036701;28;1165;-47
2021/09/01 05:51:52;;;;;;;;;;;;;;;24.75;61.53;100818.13;5036674;28;1161;-47
2021/09/01 05:54:18;;;;;;;;;;;;;;;24.76;61.41;100825.22;5036841;28;1046;-47
2021/09/01 05:56:46;;;;;;;;;;;;;;;24.77;61.83;100824.22;5036849;28;1094;-47
2021/09/01 05:59:14;;;;;;;;;;;;;;;24.78;61.70;100816.94;5036731;28;1906;-47
2021/09/01 06:01:45;;;;;;;;;;;;;;;24.81;61.50;100822.00;5036183;28;1333;-47
2021/09/01 06:04:12;;;;;;;;;;;;;;;24.83;61.72;100809.16;5036526;28;1111;-47
2021/09/01 06:06:41;;;;;;;;;;;;;;;24.86;61.75;100808.78;5036606;28;999;-47
2021/09/01 06:09:08;;;;;;;;;;;;;;;24.88;61.43;100816.75;5036661;28;1037;-47
2021/09/01 06:11:35;;;;;;;;;;;;;;;24.88;61.35;100814.03;5036320;28;1153;-47
2021/09/01 06:14:02;;;;;;;;;;;;;;;24.87;61.32;100810.50;5036539;28;1070;-47
2021/09/01 06:16:28;;;;;;;;;;;;;;;24.89;61.68;100813.00;5036514;28;987;-48
2021/09/01 06:18:56;;;;;;;;;;;;;;;24.84;60.92;100800.00;5036364;28;1925;-47
2021/09/01 06:21:22;;;;;;;;;;;;;;;24.89;61.60;100808.47;5035606;28;1048;-47
2021/09/01 06:23:49;;;;;;;;;;;;;;;24.91;60.75;100797.44;5036009;28;1264;-47
2021/09/01 06:26:15;;;;;;;;;;;;;;;24.90;61.42;100810.13;5036026;28;1063;-47
2021/09/01 06:28:42;;;;;;;;;;;;;;;24.87;61.68;100810.50;5036277;28;1074;-47
2021/09/01 06:31:08;;;;;;;;;;;;;;;24.89;61.49;100813.88;5036145;28;1074;-47
2021/09/01 06:33:35;;;;;;;;;;;;;;;24.90;60.89;100815.53;5036220;28;999;-47
2021/09/01 06:36:04;;;;;;;;;;;;;;;24.89;61.01;100807.59;5036081;28;1004;-47
2021/09/01 06:38:30;;;;;;;;;;;;;;;24.89;61.18;100813.88;5035816;28;1139;-48
2021/09/01 06:40:57;;;;;;;;;;;;;;;24.92;61.85;100813.50;5035904;28;1973;-47
2021/09/01 06:43:23;;;;;;;;;;;;;;;24.87;61.69;100799.69;5035690;28;1299;-47
2021/09/01 06:45:50;;;;;;;;;;;;;;;24.91;61.82;100817.25;5035653;28;1146;-47
2021/09/01 06:48:16;;;;;;;;;;;;;;;24.91;61.82;100808.25;5035596;28;1146;-48
2021/09/01 06:50:43;;;;;;;;;;;;;;;24.86;60.86;100806.09;5035857;28;1092;-47
2021/09/01 06:53:12;;;;;;;;;;;;;;;24.90;61.56;100803.88;5035442;28;1099;-47
2021/09/01 06:55:38;;;;;;;;;;;;;;;24.89;61.77;100819.28;5035430;28;1131;-48
2021/09/01 06:58:13;;;;;;;;;;;;;;;24.90;61.81;100806.59;5035450;28;1178;-47
2021/09/01 07:00:40;;;;;;;;;;;;;;;24.92;61.54;100808.09;5035625;28;1902;-47
2021/09/01 07:03:06;;;;;;;;;;;;;;;24.94;61.43;100806.06;5035132;28;1414;-47
2021/09/01 07:05:33;;;;;;;;;;;;;;;24.88;61.12;100795.09;5035521;28;1055;-47
2021/09/01 07:07:59;;;;;;;;;;;;;;;24.94;61.86;100800.66;5035212;28;1111;-47
2021/09/01 07:10:27;;;;;;;;;;;;;;;24.92;61.71;100799.97;5035176;28;1337;-47
2021/09/01 07:12:53;;;;;;;;;;;;;;;24.90;61.09;100793.91;5035126;28;1104;-47
2021/09/01 07:15:20;;;;;;;;;;;;;;;24.88;61.17;100795.09;5035091;28;951;-47
2021/09/01 07:17:46;;;;;;;;;;;;;;;24.92;61.33;100797.28;5035250;28;1003;-47
2021/09/01 07:20:13;;;;;;;;;;;;;;;24.90;61.68;100777.66;5035229;28;1975;-47
2021/09/01 07:22:40;;;;;;;;;;;;;;;24.91;61.79;100801.00;5035218;28;996;-47
2021/09/01 07:25:07;;;;;;;;;;;;;;;24.89;61.50;100789.53;5035211;28;1093;-47
2021/09/01 07:27:35;;;;;;;;;;;;;;;24.94;61.99;100797.09;5034768;28;1127;-47
2021/09/01 07:30:02;;;;;;;;;;;;;;;24.95;61.18;100798.81;5034707;28;1100;-47
2021/09/01 07:32:28;;;;;;;;;;;;;;;24.88;60.92;100782.41;5033966;28;1082;-47
2021/09/01 07:34:54;;;;;;;;;;;;;;;24.90;61.04;100777.66;5035027;28;1075;-47
2021/09/01 07:37:21;;;;;;;;;;;;;;;24.95;61.76;100791.53;5034697;28;1158;-47
2021/09/01 07:39:48;;;;;;;;;;;;;;;24.92;60.97;100782.91;5034552;28;1902;-47
2021/09/01 07:42:15;;;;;;;;;;;;;;;24.92;61.15;100783.75;5034814;28;1057;-47
2021/09/01 07:44:42;;;;;;;;;;;;;;;24.92;61.24;100781.03;5034499;28;1064;-47
2021/09/01 07:47:09;;;;;;;;;;;;;;;24.93;60.81;100777.34;5034587;28;1939;-47
2021/09/01 07:49:35;;;;;;;;;;;;;;;24.92;61.54;100762.09;5034750;28;1089;-47
2021/09/01 07:52:02;;;;;;;;;;;;;;;24.92;61.72;100772.94;5034673;28;1019;-47
2021/09/01 07:54:28;;;;;;;;;;;;;;;24.90;60.89;100777.66;5034772;28;1164;-47
2021/09/01 07:56:55;;;;;;;;;;;;;;;24.91;61.79;100773.97;5034784;28;999;-47
2021/09/01 07:59:21;;;;;;;;;;;;;;;24.91;61.74;100784.78;5034487;28;1911;-47
2021/09/01 08:01:49;;;;;;;;;;;;;;;24.95;61.03;100771.75;5033923;28;1473;-47
2021/09/01 08:04:16;;;;;;;;;;;;;;;24.93;61.41;100777.34;5034447;28;1047;-47
2021/09/01 08:06:42;;;;;;;;;;;;;;;24.95;62.04;100764.47;5034362;28;1078;-47
2021/09/01 08:09:08;;;;;;;;;;;;;;;24.95;61.32;100769.06;5034065;28;1102;-46
2021/09/01 08:11:35;;;;;;;;;;;;;;;24.95;61.88;100759.06;5034350;28;1059;-47
2021/09/01 08:14:02;;;;;;;;;;;;;;;24.95;61.13;100769.88;5033999;28;1344;-47
2021/09/01 08:16:28;;;;;;;;;;;;;;;24.97;61.98;100773.25;5034325;28;1044;-47
2021/09/01 08:18:56;;;;;;;;;;;;;;;24.93;62.01;100766.50;5033838;28;1150;-47
2021/09/01 08:21:23;;;;;;;;;;;;;;;24.99;62.14;100779.34;5034092;28;1910;-47
2021/09/01 08:23:49;;;;;;;;;;;;;;;24.95;61.24;100769.06;5033828;28;1138;-47
2021/09/01 08:26:16;;;;;;;;;;;;;;;24.95;61.59;100771.75;5033790;28;1088;-47
2021/09/01 08:28:43;;;;;;;;;;;;;;;24.92;61.07;100767.50;5034060;28;1022;-47
2021/09/01 08:34:13;;;;;;;;;;;;;;;24.94;61.19;100765.47;5034363;28;681;-47
2021/09/01 08:36:40;;;;;;;;;;;;;;;24.99;61.88;100765.81;5033969;28;1044;-47
2021/09/01 08:39:06;;;;;;;;;;;;;;;24.94;61.40;100762.78;5033621;28;1095;-47
2021/09/01 08:41:33;;;;;;;;;;;;;;;25.00;61.28;100772.88;5033736;28;1977;-47
2021/09/01 08:44:00;;;;;;;;;;;;;;;25.00;61.95;100767.47;5033368;28;1951;-47
2021/09/01 08:46:27;;;;;;;;;;;;;;;24.96;61.22;100743.66;5033527;28;1103;-47
2021/09/01 08:48:53;;;;;;;;;;;;;;;24.93;61.20;100754.81;5033462;28;1261;-47
2021/09/01 08:51:21;;;;;;;;;;;;;;;24.94;61.14;100746.53;5033442;28;1167;-46
2021/09/01 08:53:48;;;;;;;;;;;;;;;24.96;61.75;100757.19;5033631;28;1004;-47
2021/09/01 08:56:14;;;;;;;;;;;;;;;24.99;61.80;100744.16;5033733;28;1081;-47
2021/09/01 08:58:41;;;;;;;;;;;;;;;24.95;61.23;100742.84;5033757;28;1008;-47
2021/09/01 09:01:07;;;;;;;;;;;;;;;24.95;61.23;100742.84;5033139;28;1906;-48
2021/09/01 09:03:35;;;;;;;;;;;;;;;24.98;61.71;100747.03;5033280;28;1470;-47
2021/09/01 09:06:05;;;;;;;;;;;;;;;24.95;61.52;100740.13;5033647;28;988;-47
2021/09/01 09:08:33;;;;;;;;;;;;;;;24.99;61.48;100744.16;5033552;28;1085;-47
2021/09/01 09:11:00;;;;;;;;;;;;;;;24.97;61.31;100750.78;5033576;28;1059;-47
2021/09/01 09:13:28;;;;;;;;;;;;;;;25.01;61.95;100757.53;5033244;28;1143;-47
2021/09/01 09:16:02;;;;;;;;;;;;;;;25.01;61.84;100755.66;5033229;28;1203;-47
2021/09/01 09:18:29;;;;;;;;;;;;;;;24.99;62.09;100727.94;5033166;28;1099;-47
2021/09/01 09:21:12;;;;;;;;;;;;;;;24.99;60.90;100722.53;5033415;28;1906;-47
2021/09/01 09:23:40;;;;;;;;;;;;;;;24.98;61.89;100736.22;5033497;28;1090;-47
2021/09/01 09:26:20;;;;;;;;;;;;;;;24.95;61.58;100721.19;5033308;28;1015;-47
2021/09/01 09:29:04;;;;;;;;;;;;;;;24.98;60.97;100726.22;5033462;28;1059;-47
2021/09/01 09:31:31;;;;;;;;;;;;;;;25.00;60.89;100717.94;5033064;28;1290;-47
2021/09/01 09:34:04;;;;;;;;;;;;;;;25.05;61.08;100736.34;5033453;28;1062;-47
2021/09/01 09:36:30;;;;;;;;;;;;;;;24.98;60.97;100717.28;5033059;28;1071;-47
2021/09/01 09:38:58;;;;;;;;;;;;;;;25.00;61.29;100713.38;5033393;28;1085;-47
2021/09/01 09:41:27;;;;;;;;;;;;;;;24.99;61.19;100717.13;5032891;28;1910;-47
2021/09/01 09:43:55;;;;;;;;;;;;;;;25.03;61.77;100723.03;5033311;28;992;-47
2021/09/01 09:46:21;;;;;;;;;;;;;;;25.02;61.20;100716.75;5032997;28;1075;-46
2021/09/01 09:48:48;;;;;;;;;;;;;;;25.00;61.57;100690.91;5033289;28;999;-47
2021/09/01 09:51:16;;;;;;;;;;;;;;;24.98;61.07;100699.19;5033231;28;1019;-47
2021/09/01 09:53:43;;;;;;;;;;;;;;;25.05;62.18;100704.75;5032806;28;934;-47
2021/09/01 09:56:13;;;;;;;;;;;;;;;25.00;62.15;100686.31;5034374;28;1065;-47
2021/09/01 09:58:41;;;;;;;;;;;;;;;24.99;61.33;100706.28;5036850;28;1060;-47
2021/09/01 10:01:09;;;;;;;;;;;;;;;24.97;61.88;100697.50;5036558;28;1907;-47
2021/09/01 10:03:36;;;;;;;;;;;;;;;25.04;61.99;100697.63;5036403;28;1914;-47
2021/09/01 10:06:03;;;;;;;;;;;;;;;24.97;61.96;100681.28;5036325;28;1067;-47
2021/09/01 10:08:30;;;;;;;;;;;;;;;24.98;62.15;100674.84;5036088;28;1171;-47
2021/09/01 10:10:58;;;;;;;;;;;;;;;25.02;61.98;100694.25;5036611;28;1074;-47
2021/09/01 10:13:27;;;;;;;;;;;;;;;25.01;61.10;100682.59;5036271;28;1128;-47
2021/09/01 10:15:54;;;;;;;;;;;;;;;25.02;61.26;100676.16;5036557;28;1077;-47
2021/09/01 10:18:21;;;;;;;;;;;;;;;25.07;61.89;100688.31;5036221;28;1071;-47
2021/09/01 10:20:48;;;;;;;;;;;;;;;25.02;62.03;100664.50;5036082;28;1902;-47
2021/09/01 10:23:14;;;;;;;;;;;;;;;25.01;61.28;100682.59;5036095;28;1103;-47
2021/09/01 10:25:41;;;;;;;;;;;;;;;25.01;61.11;100692.59;5036360;28;1081;-47
2021/09/01 10:28:35;;;;;;;;;;;;;;;25.02;61.26;100686.16;5035983;28;1067;-47
2021/09/01 10:31:19;;;;;;;;;;;;;;;25.04;62.21;100664.34;4989431;28;2853;-47
2021/09/01 10:33:47;;;;;;;;;;;;;;;25.02;61.59;100675.31;5035912;28;1060;-47
2021/09/01 10:36:32;;;;;;;;;;;;;;;25.07;62.03;100669.38;5035852;28;1083;-47
2021/09/01 10:39:14;;;;;;;;;;;;;;;25.05;61.39;100680.41;5036083;28;1086;-47
2021/09/01 10:41:41;;;;;;;;;;;;;;;25.02;61.13;100678.88;5035903;28;1902;-47
2021/09/01 10:44:07;;;;;;;;;;;;;;;25.00;61.90;100680.06;5035744;28;1107;-47
2021/09/01 10:46:58;;;;;;;;;;;;;;;24.95;61.52;100683.31;5035658;28;1103;-47
2021/09/01 10:49:27;;;;;;;;;;;;;;;25.01;61.24;100682.59;5035576;28;1944;-47
2021/09/01 10:51:55;;;;;;;;;;;;;;;25.02;61.45;100684.28;5035583;28;1063;-47
2021/09/01 10:54:29;;;;;;;;;;;;;;;24.99;61.75;100690.06;5035572;28;1076;-47
2021/09/01 10:56:55;;;;;;;;;;;;;;;24.95;61.96;100675.19;5035787;28;1062;-47
2021/09/01 10:59:24;;;;;;;;;;;;;;;24.90;61.29;100683.00;5035723;28;1081;-47
2021/09/01 11:02:05;;;;;;;;;;;;;;;24.89;62.08;100670.50;5035034;28;1910;-47
2021/09/01 11:04:33;;;;;;;;;;;;;;;24.92;62.21;100667.44;5035319;28;1108;-47
2021/09/01 11:07:02;;;;;;;;;;;;;;;24.95;61.56;100672.50;5035273;28;1016;-47
2021/09/01 11:09:29;;;;;;;;;;;;;;;24.93;61.63;100671.84;5035537;28;1063;-47
2021/09/01 11:11:56;;;;;;;;;;;;;;;24.94;61.25;100654.56;5035512;28;1035;-47
2021/09/01 11:14:33;;;;;;;;;;;;;;;24.97;62.18;100675.88;5035428;28;1063;-47
2021/09/01 11:17:00;;;;;;;;;;;;;;;24.91;61.80;100656.78;5035107;28;1143;-47
2021/09/01 11:19:27;;;;;;;;;;;;;;;24.95;61.67;100658.97;5034978;28;1079;-47
2021/09/01 11:21:58;;;;;;;;;;;;;;;24.95;62.33;100664.38;5035263;28;1906;-47
2021/09/01 11:24:24;;;;;;;;;;;;;;;24.91;61.87;100659.47;5035267;28;1067;-47
2021/09/01 11:26:54;;;;;;;;;;;;;;;24.94;61.71;100659.16;5035229;28;1082;-47
2021/09/01 11:29:20;;;;;;;;;;;;;;;24.94;62.06;100661.84;5034849;28;1084;-47
2021/09/01 11:31:53;;;;;;;;;;;;;;;24.95;62.37;100645.44;5035103;28;1055;-47
2021/09/01 11:34:19;;;;;;;;;;;;;;;24.96;61.51;100641.69;5034772;28;1177;-47
2021/09/01 11:36:46;;;;;;;;;;;;;;;24.99;62.17;100646.78;5035047;28;1046;-47
2021/09/01 11:39:16;;;;;;;;;;;;;;;24.95;62.33;100644.63;5034673;28;1095;-47
2021/09/01 11:41:44;;;;;;;;;;;;;;;24.96;62.34;100641.69;5034461;28;1905;-47
2021/09/01 11:44:10;;;;;;;;;;;;;;;24.96;62.29;100641.69;5034850;28;1077;-47
2021/09/01 11:46:38;;;;;;;;;;;;;;;25.01;61.93;100633.06;5034504;28;1079;-47
2021/09/01 11:49:05;;;;;;;;;;;;;;;24.95;61.38;100631.91;5034787;28;1007;-48
2021/09/01 11:51:32;;;;;;;;;;;;;;;25.00;61.41;100629.50;5034729;28;1077;-47
2021/09/01 11:53:59;;;;;;;;;;;;;;;25.02;61.45;100623.91;5034631;28;1001;-47
2021/09/01 11:56:27;;;;;;;;;;;;;;;24.99;61.30;100625.13;5034649;28;1070;-47
2021/09/01 11:58:57;;;;;;;;;;;;;;;25.02;62.14;100613.09;5034261;28;1067;-47
2021/09/01 12:01:24;;;;;;;;;;;;;;;25.01;61.63;100612.25;5034301;28;2005;-47
2021/09/01 12:03:51;;;;;;;;;;;;;;;25.03;62.21;100609.38;5034455;28;1088;-47
2021/09/01 12:06:17;;;;;;;;;;;;;;;25.00;61.71;100607.88;5034131;28;1182;-47
2021/09/01 12:08:45;;;;;;;;;;;;;;;25.01;61.25;100612.25;5034345;28;1077;-47
2021/09/01 12:11:12;;;;;;;;;;;;;;;25.06;62.10;100613.59;5034363;28;1078;-47
2021/09/01 12:13:41;;;;;;;;;;;;;;;25.01;61.63;100596.03;5034309;28;1003;-47
2021/09/01 12:16:07;;;;;;;;;;;;;;;25.01;61.33;100606.84;5033983;28;1170;-47
2021/09/01 12:18:50;;;;;;;;;;;;;;;25.03;61.26;100614.81;5033566;28;1012;-47
2021/09/01 12:21:17;;;;;;;;;;;;;;;25.06;62.14;100619.00;5034147;28;1982;-47
2021/09/01 12:23:43;;;;;;;;;;;;;;;25.04;61.63;100611.06;5034152;28;1090;-47
2021/09/01 12:26:09;;;;;;;;;;;;;;;25.05;62.18;100615.47;5033905;28;1067;-47
2021/09/01 12:28:45;;;;;;;;;;;;;;;25.02;62.06;100596.88;5034106;28;1077;-47
2021/09/01 12:31:18;;;;;;;;;;;;;;;25.06;62.09;100602.78;5033986;28;1094;-47
2021/09/01 12:33:45;;;;;;;;;;;;;;;25.06;62.20;100598.19;5034004;28;1004;-47
2021/09/01 12:36:11;;;;;;;;;;;;;;;25.04;62.03;100615.63;5033678;28;1158;-47
2021/09/01 12:38:38;;;;;;;;;;;;;;;25.01;61.65;100596.03;5033961;28;995;-47
2021/09/01 12:41:19;;;;;;;;;;;;;;;25.05;61.21;100601.06;5033828;28;1906;-48
2021/09/01 12:43:48;;;;;;;;;;;;;;;25.01;61.60;100604.16;5033527;28;1186;-47
2021/09/01 12:46:22;;;;;;;;;;;;;;;25.02;61.54;100607.69;5033840;28;1066;-47
2021/09/01 12:48:48;;;;;;;;;;;;;;;25.06;62.14;100602.78;5033518;28;1155;-47
2021/09/01 12:51:15;;;;;;;;;;;;;;;25.06;62.15;100613.59;5033793;28;1008;-47
2021/09/01 12:53:41;;;;;;;;;;;;;;;25.03;61.97;100612.09;5033378;28;1151;-48